Time,TemperatureF,DewpointF,PressureIn,WindDirection,WindDirectionDegrees,WindSpeedMPH,WindSpeedGustMPH,Humidity,HourlyPrecipIn,Conditions,Clouds,dailyrainin,SoftwareType,DateUTC
2013-01-12 00:07:00,-19.1,-19.5,28.12,NNW,346,0.0,0.0,98,0.00,,,1.15,WUHU216DAVISWMX,2013-01-12 05:07:00,
2013-01-12 00:12:00,33.5,33.0,28.12,NNW,338,0.0,0.0,98,0.00,,,1.15,WUHU216DAVISWMX,2013-01-12 05:12:00,
2013-01-12 00:17:00,33.7,33.2,28.13,NNW,338,0.0,0.0,98,0.00,,,1.15,WUHU216DAVISWMX,2013-01-12 05:17:00,
2013-01-12 00:22:00,33.7,33.2,28.13,NNW,338,0.0,0.0,98,0.00,,,1.15,WUHU216DAVISWMX,2013-01-12 05:22:00,
2013-01-12 00:27:00,33.9,33.4,28.13,NNW,338,0.0,0.0,98,0.00,,,1.15,WUHU216DAVISWMX,2013-01-12 05:27:00,
2013-01-12 00:32:00,34.0,33.5,28.13,NNW,338,0.0,0.0,98,0.00,,,1.15,WUHU216DAVISWMX,2013-01-12 05:32:00,
2013-01-12 00:37:00,34.0,33.5,28.12,NNW,338,0.0,0.0,98,0.00,,,1.15,WUHU216DAVISWMX,2013-01-12 05:37:00,
2013-01-12 00:42:00,34.0,33.5,28.12,NNW,338,0.0,0.0,98,0.00,,,1.15,WUHU216DAVISWMX,2013-01-12 05:42:00,
2013-01-12 00:47:00,34.0,33.5,28.12,NNW,338,0.0,0.0,98,0.00,,,1.15,WUHU216DAVISWMX,2013-01-12 05:47:00,
2013-01-12 00:52:00,34.0,33.5,28.12,NNW,338,0.0,0.0,98,0.00,,,1.15,WUHU216DAVISWMX,2013-01-12 05:52:00,
2013-01-12 00:57:00,34.0,33.5,28.12,NNW,338,0.0,0.0,98,0.00,,,1.15,WUHU216DAVISWMX,2013-01-12 05:57:00,
2013-01-12 01:02:00,34.0,33.5,28.12,NNW,338,0.0,0.0,98,0.00,,,1.15,WUHU216DAVISWMX,2013-01-12 06:02:00,
2013-01-12 01:07:00,34.0,33.5,28.12,NNW,338,0.0,0.0,98,0.00,,,1.15,WUHU216DAVISWMX,2013-01-12 06:07:00,
2013-01-12 01:08:00,34.0,33.5,28.13,NNW,338,0.0,0.0,98,0.00,,,1.15,WUHU216DAVISWMX,2013-01-12 06:08:00,
2013-01-12 01:12:00,34.0,33.5,28.13,NNW,338,0.0,0.0,98,0.00,,,1.15,WUHU216DAVISWMX,2013-01-12 06:12:00,
2013-01-12 01:17:00,34.0,33.5,28.13,NNW,338,0.0,0.0,98,0.00,,,1.15,WUHU216DAVISWMX,2013-01-12 06:17:00,
2013-01-12 01:57:00,34.4,34.1,28.13,NNW,338,0.0,0.0,99,0.00,,,1.15,WUHU216DAVISWMX,2013-01-12 06:57:00,
2013-01-12 02:02:00,34.5,34.2,28.14,NNW,338,0.0,0.0,99,0.00,,,1.15,WUHU216DAVISWMX,2013-01-12 07:02:00,
2013-01-12 02:07:00,34.7,34.2,28.14,NNW,338,0.0,0.0,98,0.00,,,1.15,WUHU216DAVISWMX,2013-01-12 07:07:00,
2013-01-12 02:12:00,34.7,34.2,28.14,NNW,338,0.0,0.0,98,0.00,,,1.15,WUHU216DAVISWMX,2013-01-12 07:12:00,
2013-01-12 02:17:00,34.7,34.4,28.14,NNW,338,0.0,0.0,99,0.00,,,1.15,WUHU216DAVISWMX,2013-01-12 07:17:00,
2013-01-12 02:22:00,34.4,33.9,28.14,NNW,338,0.0,0.0,98,0.00,,,1.15,WUHU216DAVISWMX,2013-01-12 07:22:00,
2013-01-12 02:27:00,34.2,33.9,28.14,NNW,338,0.0,3.0,99,0.00,,,1.15,WUHU216DAVISWMX,2013-01-12 07:27:00,
2013-01-12 02:32:00,34.0,33.5,28.14,NNW,338,0.0,3.0,98,0.00,,,1.15,WUHU216DAVISWMX,2013-01-12 07:32:00,
2013-01-12 02:37:00,34.0,33.5,28.14,NNW,338,0.0,0.0,98,0.00,,,1.15,WUHU216DAVISWMX,2013-01-12 07:37:00,
2013-01-12 02:42:00,34.0,33.5,28.14,NNW,338,0.0,0.0,98,0.00,,,1.15,WUHU216DAVISWMX,2013-01-12 07:42:00,
2013-01-12 02:47:00,34.0,33.5,28.15,NNW,338,0.0,0.0,98,0.00,,,1.15,WUHU216DAVISWMX,2013-01-12 07:47:00,
2013-01-12 02:52:00,34.0,33.5,28.15,NNW,338,0.0,0.0,98,0.00,,,1.15,WUHU216DAVISWMX,2013-01-12 07:52:00,
2013-01-12 02:57:00,34.0,33.5,28.15,NNW,338,0.0,0.0,98,0.00,,,1.15,WUHU216DAVISWMX,2013-01-12 07:57:00,
2013-01-12 03:02:00,34.0,33.5,28.15,NNW,338,0.0,0.0,98,0.00,,,1.15,WUHU216DAVISWMX,2013-01-12 08:02:00,
2013-01-12 03:03:00,34.0,33.5,28.15,NNW,338,0.0,0.0,98,0.00,,,1.15,WUHU216DAVISWMX,2013-01-12 08:03:00,
2013-01-12 03:07:00,34.0,33.5,28.15,NNW,338,0.0,0.0,98,0.00,,,1.15,WUHU216DAVISWMX,2013-01-12 08:07:00,
2013-01-12 03:12:00,34.0,33.5,28.15,NNW,338,0.0,0.0,98,0.00,,,1.15,WUHU216DAVISWMX,2013-01-12 08:12:00,
2013-01-12 03:46:00,35.1,34.8,28.15,NNW,340,0.0,0.0,99,0.00,,,1.15,WUHU216DAVISWMX,2013-01-12 08:46:00,
2013-01-12 03:51:00,35.1,34.8,28.14,NNW,338,0.0,0.0,99,0.00,,,1.15,WUHU216DAVISWMX,2013-01-12 08:51:00,
2013-01-12 03:56:00,34.9,34.6,28.14,NNW,338,0.0,0.0,99,0.00,,,1.15,WUHU216DAVISWMX,2013-01-12 08:56:00,
2013-01-12 04:01:00,35.0,34.5,28.14,NNW,338,0.0,0.0,98,0.00,,,1.15,WUHU216DAVISWMX,2013-01-12 09:01:00,
2013-01-12 04:06:00,35.0,34.7,28.14,NNW,338,0.0,0.0,99,0.00,,,1.15,WUHU216DAVISWMX,2013-01-12 09:06:00,
2013-01-12 04:11:00,34.7,34.4,28.14,NNW,338,0.0,0.0,99,0.00,,,1.15,WUHU216DAVISWMX,2013-01-12 09:11:00,
2013-01-12 04:16:00,34.5,34.0,28.14,NNW,338,0.0,0.0,98,0.00,,,1.15,WUHU216DAVISWMX,2013-01-12 09:16:00,
2013-01-12 04:21:00,34.4,34.1,28.14,NNW,338,0.0,1.0,99,0.00,,,1.15,WUHU216DAVISWMX,2013-01-12 09:21:00,
2013-01-12 04:26:00,34.3,34.0,28.14,NNW,338,0.0,1.0,99,0.00,,,1.15,WUHU216DAVISWMX,2013-01-12 09:26:00,
2013-01-12 04:31:00,34.3,34.0,28.14,NNW,338,0.0,0.0,99,0.00,,,1.15,WUHU216DAVISWMX,2013-01-12 09:31:00,
2013-01-12 04:36:00,34.3,34.0,28.14,NNW,338,0.0,0.0,99,0.00,,,1.15,WUHU216DAVISWMX,2013-01-12 09:36:00,
2013-01-12 04:41:00,34.4,34.1,28.13,NNW,338,0.0,0.0,99,0.00,,,1.15,WUHU216DAVISWMX,2013-01-12 09:41:00,
2013-01-12 04:46:00,34.4,34.1,28.14,NNW,338,0.0,0.0,99,0.00,,,1.15,WUHU216DAVISWMX,2013-01-12 09:46:00,
2013-01-12 04:51:00,34.7,34.4,28.13,NNW,338,0.0,0.0,99,0.00,,,1.15,WUHU216DAVISWMX,2013-01-12 09:51:00,
2013-01-12 04:56:00,34.8,34.5,28.14,NNW,338,0.0,0.0,99,0.00,,,1.15,WUHU216DAVISWMX,2013-01-12 09:56:00,
2013-01-12 05:01:00,34.4,34.1,28.14,NNW,338,0.0,0.0,99,0.00,,,1.15,WUHU216DAVISWMX,2013-01-12 10:01:00,
2013-01-12 05:06:00,34.4,33.9,28.13,NNW,338,0.0,0.0,98,0.00,,,1.15,WUHU216DAVISWMX,2013-01-12 10:06:00,
2013-01-12 05:11:00,34.7,34.4,28.13,NNW,338,0.0,0.0,99,0.00,,,1.15,WUHU216DAVISWMX,2013-01-12 10:11:00,
2013-01-12 05:16:00,34.7,34.4,28.14,NNW,338,0.0,0.0,99,0.00,,,1.15,WUHU216DAVISWMX,2013-01-12 10:16:00,
2013-01-12 05:21:00,34.7,34.4,28.13,NNW,338,0.0,0.0,99,0.00,,,1.15,WUHU216DAVISWMX,2013-01-12 10:21:00,
2013-01-12 05:26:00,34.8,34.5,28.13,NNW,338,0.0,0.0,99,0.00,,,1.15,WUHU216DAVISWMX,2013-01-12 10:26:00,
2013-01-12 05:31:00,34.7,34.4,28.14,NNW,338,0.0,0.0,99,0.00,,,1.15,WUHU216DAVISWMX,2013-01-12 10:31:00,
2013-01-12 05:36:00,35.2,34.9,28.13,NNW,338,0.0,0.0,99,0.00,,,1.15,WUHU216DAVISWMX,2013-01-12 10:36:00,
2013-01-12 05:41:00,35.2,34.9,28.14,NNW,338,0.0,0.0,99,0.00,,,1.15,WUHU216DAVISWMX,2013-01-12 10:41:00,
2013-01-12 05:46:00,34.7,34.4,28.14,NNW,338,0.0,1.0,99,0.00,,,1.15,WUHU216DAVISWMX,2013-01-12 10:46:00,
2013-01-12 05:51:00,34.3,33.8,28.14,NNW,338,0.0,1.0,98,0.00,,,1.15,WUHU216DAVISWMX,2013-01-12 10:51:00,
2013-01-12 05:56:00,34.1,33.8,28.14,NNW,338,0.0,0.0,99,0.00,,,1.15,WUHU216DAVISWMX,2013-01-12 10:56:00,
2013-01-12 06:01:00,33.9,33.6,28.14,NNW,338,0.0,0.0,99,0.00,,,1.15,WUHU216DAVISWMX,2013-01-12 11:01:00,
2013-01-12 06:06:00,33.9,33.6,28.15,NNW,338,0.0,0.0,99,0.00,,,1.15,WUHU216DAVISWMX,2013-01-12 11:06:00,
2013-01-12 06:11:00,33.9,33.6,28.14,NNW,338,0.0,0.0,99,0.00,,,1.15,WUHU216DAVISWMX,2013-01-12 11:11:00,
2013-01-12 06:16:00,33.9,33.6,28.15,NNW,338,0.0,0.0,99,0.00,,,1.15,WUHU216DAVISWMX,2013-01-12 11:16:00,
2013-01-12 06:21:00,33.9,33.6,28.15,NNW,338,0.0,0.0,99,0.00,,,1.15,WUHU216DAVISWMX,2013-01-12 11:21:00,
2013-01-12 06:26:00,33.9,33.6,28.15,NNW,338,0.0,0.0,99,0.00,,,1.15,WUHU216DAVISWMX,2013-01-12 11:26:00,
2013-01-12 06:31:00,33.9,33.6,28.15,NNW,338,0.0,0.0,99,0.00,,,1.15,WUHU216DAVISWMX,2013-01-12 11:31:00,
2013-01-12 06:36:00,33.9,33.6,28.15,NNW,338,0.0,0.0,99,0.00,,,1.15,WUHU216DAVISWMX,2013-01-12 11:36:00,
2013-01-12 07:14:00,32.8,32.5,28.16,NNW,339,0.0,0.0,99,0.00,,,1.15,WUHU216DAVISWMX,2013-01-12 12:14:00,
2013-01-12 07:19:00,33.0,32.7,28.16,NNW,338,0.0,0.0,99,0.00,,,1.15,WUHU216DAVISWMX,2013-01-12 12:19:00,
2013-01-12 07:24:00,33.6,33.3,28.16,NNW,338,0.0,0.0,99,0.00,,,1.15,WUHU216DAVISWMX,2013-01-12 12:24:00,
2013-01-12 07:29:00,33.9,33.9,28.16,SE,127,0.0,2.0,100,0.00,,,1.15,WUHU216DAVISWMX,2013-01-12 12:29:00,
2013-01-12 07:34:00,33.7,33.4,28.16,SE,127,0.0,2.0,99,0.00,,,1.15,WUHU216DAVISWMX,2013-01-12 12:34:00,
2013-01-12 07:39:00,33.9,33.6,28.16,SE,127,0.0,0.0,99,0.00,,,1.15,WUHU216DAVISWMX,2013-01-12 12:39:00,
2013-01-12 07:45:00,34.4,34.4,28.16,SE,127,0.0,0.0,100,0.00,,,1.15,WUHU216DAVISWMX,2013-01-12 12:45:00,
2013-01-12 07:50:00,34.8,34.8,28.16,SE,127,0.0,0.0,100,0.00,,,1.15,WUHU216DAVISWMX,2013-01-12 12:50:00,
2013-01-12 07:54:00,34.8,34.8,28.16,SE,127,0.0,0.0,100,0.00,,,1.15,WUHU216DAVISWMX,2013-01-12 12:54:00,
2013-01-12 07:59:00,34.8,34.5,28.16,SE,127,0.0,0.0,99,0.00,,,1.15,WUHU216DAVISWMX,2013-01-12 12:59:00,
2013-01-12 08:05:00,34.8,34.5,28.16,SE,127,0.0,0.0,99,0.00,,,1.15,WUHU216DAVISWMX,2013-01-12 13:05:00,
2013-01-12 08:10:00,34.8,34.8,28.16,SE,127,0.0,0.0,100,0.00,,,1.15,WUHU216DAVISWMX,2013-01-12 13:10:00,
2013-01-12 08:14:00,34.8,34.8,28.17,SE,127,0.0,0.0,100,0.00,,,1.15,WUHU216DAVISWMX,2013-01-12 13:14:00,
2013-01-12 08:15:00,34.8,34.8,28.17,SE,127,0.0,0.0,100,0.00,,,1.15,WUHU216DAVISWMX,2013-01-12 13:15:00,
2013-01-12 08:19:00,34.8,34.8,28.17,SE,127,0.0,0.0,100,0.00,,,1.15,WUHU216DAVISWMX,2013-01-12 13:19:00,
2013-01-12 08:24:00,34.8,34.8,28.17,SE,127,0.0,0.0,100,0.00,,,1.15,WUHU216DAVISWMX,2013-01-12 13:24:00,
2013-01-12 09:06:00,40.4,40.4,28.17,East,100,0.0,0.0,100,0.00,,,1.15,WUHU216DAVISWMX,2013-01-12 14:06:00,
2013-01-12 09:11:00,39.5,39.5,28.18,SE,127,0.0,0.0,100,0.00,,,1.15,WUHU216DAVISWMX,2013-01-12 14:11:00,
2013-01-12 09:16:00,38.7,38.7,28.17,SE,127,0.0,0.0,100,0.00,,,1.15,WUHU216DAVISWMX,2013-01-12 14:16:00,
2013-01-12 09:21:00,39.4,39.4,28.18,SE,127,0.0,0.0,100,0.00,,,1.15,WUHU216DAVISWMX,2013-01-12 14:21:00,
2013-01-12 09:26:00,40.6,40.6,28.18,SE,127,0.0,0.0,100,0.00,,,1.15,WUHU216DAVISWMX,2013-01-12 14:26:00,
2013-01-12 09:29:00,43.6,43.6,28.18,SE,127,0.0,2.0,100,0.00,,,1.15,WUHU216DAVISWMX,2013-01-12 14:29:00,
2013-01-12 09:31:00,42.7,42.7,28.18,SE,127,0.0,0.0,100,0.00,,,1.15,WUHU216DAVISWMX,2013-01-12 14:31:00,
2013-01-12 09:36:00,43.6,43.6,28.18,SE,127,0.0,2.0,100,0.00,,,1.15,WUHU216DAVISWMX,2013-01-12 14:36:00,
2013-01-12 13:26:00,52.2,52.2,28.15,West,261,0.0,0.0,100,0.00,,,1.15,WUHU216DAVISWMX,2013-01-12 18:26:00,
2013-01-12 13:31:00,52.3,52.3,28.15,West,262,4.0,4.0,100,0.00,,,1.15,WUHU216DAVISWMX,2013-01-12 18:31:00,
2013-01-12 13:36:00,52.4,52.4,28.15,West,262,3.0,4.0,100,0.00,,,1.15,WUHU216DAVISWMX,2013-01-12 18:36:00,
2013-01-12 13:41:00,52.9,52.6,28.14,West,260,0.0,3.0,99,0.00,,,1.15,WUHU216DAVISWMX,2013-01-12 18:41:00,
2013-01-12 13:46:00,53.0,52.4,28.14,WSW,248,3.0,7.0,98,0.00,,,1.15,WUHU216DAVISWMX,2013-01-12 18:46:00,
2013-01-12 13:51:00,53.3,51.6,28.14,WSW,255,2.0,7.0,94,0.00,,,1.15,WUHU216DAVISWMX,2013-01-12 18:51:00,
2013-01-12 13:56:00,53.7,52.0,28.14,WSW,238,5.0,7.0,94,0.00,,,1.15,WUHU216DAVISWMX,2013-01-12 18:56:00,
2013-01-12 14:01:00,54.0,51.7,28.14,SW,235,0.0,7.0,92,0.00,,,1.15,WUHU216DAVISWMX,2013-01-12 19:01:00,
2013-01-12 14:06:00,54.2,51.3,28.14,West,259,0.0,7.0,90,0.00,,,1.15,WUHU216DAVISWMX,2013-01-12 19:06:00,
2013-01-12 14:11:00,54.2,50.4,28.14,WSW,251,0.0,8.0,87,0.00,,,1.15,WUHU216DAVISWMX,2013-01-12 19:11:00,
2013-01-12 14:16:00,54.2,50.1,28.14,West,270,3.0,8.0,86,0.00,,,1.15,WUHU216DAVISWMX,2013-01-12 19:16:00,
2013-01-12 14:21:00,54.1,49.7,28.14,West,260,5.0,9.0,85,0.00,,,1.15,WUHU216DAVISWMX,2013-01-12 19:21:00,
2013-01-12 14:26:00,54.1,50.0,28.15,WNW,282,0.0,9.0,86,0.00,,,1.15,WUHU216DAVISWMX,2013-01-12 19:26:00,
2013-01-12 14:31:00,54.2,49.5,28.15,WSW,257,0.0,7.0,84,0.00,,,1.15,WUHU216DAVISWMX,2013-01-12 19:31:00,
2013-01-12 14:36:00,54.0,49.3,28.15,West,264,0.0,7.0,84,0.00,,,1.15,WUHU216DAVISWMX,2013-01-12 19:36:00,
2013-01-12 14:41:00,54.1,49.4,28.15,WNW,287,2.0,7.0,84,0.00,,,1.15,WUHU216DAVISWMX,2013-01-12 19:41:00,
2013-01-12 14:46:00,54.5,49.8,28.15,West,269,7.0,8.0,84,0.00,,,1.15,WUHU216DAVISWMX,2013-01-12 19:46:00,
2013-01-12 14:51:00,55.1,50.0,28.16,West,268,7.0,8.0,83,0.00,,,1.15,WUHU216DAVISWMX,2013-01-12 19:51:00,
2013-01-12 14:56:00,55.3,49.6,28.16,WNW,289,2.0,7.0,81,0.00,,,1.15,WUHU216DAVISWMX,2013-01-12 19:56:00,
2013-01-12 15:01:00,55.6,49.9,28.16,WNW,287,4.0,9.0,81,0.00,,,1.15,WUHU216DAVISWMX,2013-01-12 20:01:00,
2013-01-12 15:06:00,55.8,49.8,28.17,WSW,253,5.0,10.0,80,0.00,,,1.15,WUHU216DAVISWMX,2013-01-12 20:06:00,
2013-01-12 15:11:00,55.9,50.2,28.16,WNW,287,4.0,10.0,81,0.00,,,1.15,WUHU216DAVISWMX,2013-01-12 20:11:00,
2013-01-12 15:16:00,55.9,50.2,28.16,WNW,283,0.0,7.0,81,0.00,,,1.15,WUHU216DAVISWMX,2013-01-12 20:16:00,
2013-01-12 15:21:00,55.9,50.2,28.17,WNW,283,0.0,4.0,81,0.00,,,1.15,WUHU216DAVISWMX,2013-01-12 20:21:00,
2013-01-12 15:26:00,55.9,50.2,28.17,WNW,283,0.0,0.0,81,0.00,,,1.15,WUHU216DAVISWMX,2013-01-12 20:26:00,
2013-01-12 15:31:00,55.9,49.9,28.17,WNW,283,0.0,0.0,80,0.00,,,1.15,WUHU216DAVISWMX,2013-01-12 20:31:00,
2013-01-12 15:36:00,55.9,50.2,28.17,WNW,283,0.0,0.0,81,0.00,,,1.15,WUHU216DAVISWMX,2013-01-12 20:36:00,
2013-01-12 15:37:00,55.9,49.9,28.17,WNW,283,0.0,0.0,80,0.00,,,1.15,WUHU216DAVISWMX,2013-01-12 20:37:00,
2013-01-12 15:41:00,55.9,49.9,28.17,WNW,283,0.0,0.0,80,0.00,,,1.15,WUHU216DAVISWMX,2013-01-12 20:41:00,
2013-01-12 15:46:00,55.9,49.9,28.17,WNW,283,0.0,0.0,80,0.00,,,1.15,WUHU216DAVISWMX,2013-01-12 20:46:00,
2013-01-12 16:38:00,53.1,47.8,28.17,West,267,0.0,0.0,82,0.00,,,1.15,WUHU216DAVISWMX,2013-01-12 21:38:00,
2013-01-12 16:43:00,53.2,47.9,28.17,West,267,0.0,0.0,82,0.00,,,1.15,WUHU216DAVISWMX,2013-01-12 21:43:00,
2013-01-12 16:48:00,53.1,47.8,28.16,West,267,0.0,0.0,82,0.00,,,1.15,WUHU216DAVISWMX,2013-01-12 21:48:00,
2013-01-12 16:53:00,53.1,47.8,28.17,West,267,0.0,0.0,82,0.00,,,1.15,WUHU216DAVISWMX,2013-01-12 21:53:00,
2013-01-12 16:58:00,53.1,47.8,28.17,West,267,0.0,0.0,82,0.00,,,1.15,WUHU216DAVISWMX,2013-01-12 21:58:00,
2013-01-12 17:03:00,53.1,47.8,28.17,West,267,0.0,0.0,82,0.00,,,1.15,WUHU216DAVISWMX,2013-01-12 22:03:00,
2013-01-12 17:08:00,53.1,47.8,28.17,West,267,0.0,0.0,82,0.00,,,1.15,WUHU216DAVISWMX,2013-01-12 22:08:00,
2013-01-12 17:13:00,53.1,47.8,28.17,West,267,0.0,0.0,82,0.00,,,1.15,WUHU216DAVISWMX,2013-01-12 22:13:00,
2013-01-12 17:16:00,53.1,47.8,28.17,West,267,0.0,0.0,82,0.00,,,1.15,WUHU216DAVISWMX,2013-01-12 22:16:00,
2013-01-12 17:18:00,53.1,47.8,28.17,West,267,0.0,0.0,82,0.00,,,1.15,WUHU216DAVISWMX,2013-01-12 22:18:00,
2013-01-12 17:23:00,53.1,47.8,28.17,West,267,0.0,0.0,82,0.00,,,1.15,WUHU216DAVISWMX,2013-01-12 22:23:00,
2013-01-12 17:54:00,47.5,44.1,28.17,West,267,0.0,0.0,88,0.00,,,1.15,WUHU216DAVISWMX,2013-01-12 22:54:00,
2013-01-12 17:59:00,47.4,44.0,28.17,West,267,0.0,0.0,88,0.00,,,1.15,WUHU216DAVISWMX,2013-01-12 22:59:00,
2013-01-12 18:04:00,47.1,43.7,28.16,West,267,0.0,3.0,88,0.00,,,1.15,WUHU216DAVISWMX,2013-01-12 23:04:00,
2013-01-12 18:09:00,47.0,43.6,28.17,West,267,2.0,3.0,88,0.00,,,1.15,WUHU216DAVISWMX,2013-01-12 23:09:00,
2013-01-12 18:14:00,47.0,43.9,28.16,West,266,0.0,3.0,89,0.00,,,1.15,WUHU216DAVISWMX,2013-01-12 23:14:00,
2013-01-12 18:19:00,47.0,43.9,28.16,West,266,0.0,3.0,89,0.00,,,1.15,WUHU216DAVISWMX,2013-01-12 23:19:00,
2013-01-12 18:24:00,47.0,43.9,28.16,West,266,0.0,0.0,89,0.00,,,1.15,WUHU216DAVISWMX,2013-01-12 23:24:00,
2013-01-12 18:29:00,47.0,43.6,28.16,West,266,0.0,0.0,88,0.00,,,1.15,WUHU216DAVISWMX,2013-01-12 23:29:00,
2013-01-12 18:34:00,47.0,43.6,28.16,West,266,0.0,0.0,88,0.00,,,1.15,WUHU216DAVISWMX,2013-01-12 23:34:00,
2013-01-12 18:39:00,47.1,44.0,28.16,West,266,0.0,0.0,89,0.00,,,1.15,WUHU216DAVISWMX,2013-01-12 23:39:00,
2013-01-12 18:41:00,47.0,43.9,28.16,West,266,0.0,0.0,89,0.00,,,1.15,WUHU216DAVISWMX,2013-01-12 23:41:00,
2013-01-12 18:44:00,47.0,43.9,28.16,West,266,0.0,0.0,89,0.00,,,1.15,WUHU216DAVISWMX,2013-01-12 23:44:00,
2013-01-12 18:49:00,47.0,43.9,28.16,West,266,0.0,0.0,89,0.00,,,1.15,WUHU216DAVISWMX,2013-01-12 23:49:00,
2013-01-12 19:20:00,45.5,43.0,28.15,SSE,153,0.0,0.0,91,0.00,,,1.15,WUHU216DAVISWMX,2013-01-13 00:20:00,
2013-01-12 19:25:00,45.4,42.6,28.15,SSE,151,0.0,0.0,90,0.00,,,1.15,WUHU216DAVISWMX,2013-01-13 00:25:00,
2013-01-12 19:30:00,45.6,43.4,28.15,SSE,151,1.0,2.0,92,0.00,,,1.15,WUHU216DAVISWMX,2013-01-13 00:30:00,
2013-01-12 19:35:00,45.9,43.7,28.14,SSE,151,0.0,2.0,92,0.00,,,1.15,WUHU216DAVISWMX,2013-01-13 00:35:00,
2013-01-12 19:40:00,46.4,44.4,28.15,SSE,151,0.0,1.0,93,0.00,,,1.15,WUHU216DAVISWMX,2013-01-13 00:40:00,
2013-01-12 19:45:00,46.3,44.1,28.15,SSE,151,0.0,1.0,92,0.00,,,1.15,WUHU216DAVISWMX,2013-01-13 00:45:00,
2013-01-12 19:50:00,45.9,43.7,28.15,SSE,151,0.0,0.0,92,0.00,,,1.15,WUHU216DAVISWMX,2013-01-13 00:50:00,
2013-01-12 19:55:00,45.6,43.1,28.15,SSE,151,0.0,0.0,91,0.00,,,1.15,WUHU216DAVISWMX,2013-01-13 00:55:00,
2013-01-12 20:00:00,45.1,42.6,28.15,SSE,151,0.0,0.0,91,0.00,,,1.15,WUHU216DAVISWMX,2013-01-13 01:00:00,
2013-01-12 20:05:00,44.7,42.2,28.14,SSE,151,0.0,0.0,91,0.00,,,1.15,WUHU216DAVISWMX,2013-01-13 01:05:00,
2013-01-12 20:10:00,45.1,42.9,28.15,SSE,151,0.0,0.0,92,0.00,,,1.15,WUHU216DAVISWMX,2013-01-13 01:10:00,
2013-01-12 20:15:00,45.1,42.9,28.15,SSE,151,0.0,0.0,92,0.00,,,1.15,WUHU216DAVISWMX,2013-01-13 01:15:00,
2013-01-12 20:20:00,44.7,42.8,28.15,SSE,151,0.0,0.0,93,0.00,,,1.15,WUHU216DAVISWMX,2013-01-13 01:20:00,
2013-01-12 20:25:00,44.1,41.6,28.15,SSE,151,0.0,0.0,91,0.00,,,1.15,WUHU216DAVISWMX,2013-01-13 01:25:00,
2013-01-12 20:30:00,43.8,41.3,28.16,SSE,151,0.0,0.0,91,0.00,,,1.15,WUHU216DAVISWMX,2013-01-13 01:30:00,
2013-01-12 20:35:00,43.8,41.3,28.16,SSE,151,0.0,0.0,91,0.00,,,1.15,WUHU216DAVISWMX,2013-01-13 01:35:00,
2013-01-12 20:40:00,43.8,41.3,28.15,SSE,151,0.0,0.0,91,0.00,,,1.15,WUHU216DAVISWMX,2013-01-13 01:40:00,
2013-01-12 20:45:00,43.8,41.3,28.15,SSE,151,0.0,0.0,91,0.00,,,1.15,WUHU216DAVISWMX,2013-01-13 01:45:00,
2013-01-12 20:50:00,43.8,41.3,28.15,SSE,151,0.0,0.0,91,0.00,,,1.15,WUHU216DAVISWMX,2013-01-13 01:50:00,
2013-01-12 20:55:00,43.8,41.3,28.15,SSE,151,0.0,0.0,91,0.00,,,1.15,WUHU216DAVISWMX,2013-01-13 01:55:00,
2013-01-12 21:00:00,43.8,41.3,28.15,SSE,165,0.0,0.0,91,0.00,,,1.15,WUHU216DAVISWMX,2013-01-13 02:00:00,
2013-01-12 21:05:00,43.8,41.3,28.15,SSE,165,0.0,0.0,91,0.00,,,1.15,WUHU216DAVISWMX,2013-01-13 02:05:00,
2013-01-12 21:33:00,42.7,41.0,28.15,South,171,0.0,0.0,94,0.00,,,1.15,WUHU216DAVISWMX,2013-01-13 02:33:00,
2013-01-12 21:38:00,42.6,41.2,28.15,SSE,151,0.0,0.0,95,0.00,,,1.15,WUHU216DAVISWMX,2013-01-13 02:38:00,
2013-01-12 21:43:00,42.4,41.0,28.15,SSE,151,0.0,0.0,95,0.00,,,1.15,WUHU216DAVISWMX,2013-01-13 02:43:00,
2013-01-12 21:48:00,42.4,40.8,28.15,SSE,151,0.0,0.0,94,0.00,,,1.15,WUHU216DAVISWMX,2013-01-13 02:48:00,
2013-01-12 21:53:00,42.4,41.0,28.14,SSE,151,0.0,0.0,95,0.00,,,1.15,WUHU216DAVISWMX,2013-01-13 02:53:00,
2013-01-12 21:58:00,42.3,40.7,28.15,SSE,151,0.0,0.0,94,0.00,,,1.15,WUHU216DAVISWMX,2013-01-13 02:58:00,
2013-01-12 22:03:00,42.3,40.7,28.15,SSE,151,0.0,0.0,94,0.00,,,1.15,WUHU216DAVISWMX,2013-01-13 03:03:00,
2013-01-12 22:08:00,42.3,40.7,28.14,SSE,151,0.0,0.0,94,0.00,,,1.15,WUHU216DAVISWMX,2013-01-13 03:08:00,
2013-01-12 22:13:00,42.3,40.7,28.14,SSE,151,0.0,0.0,94,0.00,,,1.15,WUHU216DAVISWMX,2013-01-13 03:13:00,
2013-01-12 22:18:00,42.3,40.7,28.14,SSE,151,0.0,0.0,94,0.00,,,1.15,WUHU216DAVISWMX,2013-01-13 03:18:00,
2013-01-12 22:23:00,42.3,40.7,28.14,SSE,151,0.0,0.0,94,0.00,,,1.15,WUHU216DAVISWMX,2013-01-13 03:23:00,
2013-01-12 22:24:00,40.5,38.9,28.14,South,191,0.0,0.0,94,0.00,,,1.15,WUHU216DAVISWMX,2013-01-13 03:24:00,
2013-01-12 22:28:00,40.5,38.9,28.14,South,191,0.0,0.0,94,0.00,,,1.15,WUHU216DAVISWMX,2013-01-13 03:28:00,
2013-01-12 22:33:00,40.5,38.9,28.14,South,191,0.0,0.0,94,0.00,,,1.15,WUHU216DAVISWMX,2013-01-13 03:33:00,
2013-01-12 23:00:00,44.6,43.2,28.11,East,86,2.0,2.0,95,0.00,,,1.15,WUHU216DAVISWMX,2013-01-13 04:00:00,
2013-01-12 23:05:00,44.6,43.2,28.12,East,86,5.0,5.0,95,0.00,,,1.15,WUHU216DAVISWMX,2013-01-13 04:05:00,
2013-01-12 23:10:00,45.7,44.3,28.11,ESE,104,0.0,7.0,95,0.00,,,1.15,WUHU216DAVISWMX,2013-01-13 04:10:00,
2013-01-12 23:15:00,46.1,44.7,28.11,ESE,104,2.0,7.0,95,0.00,,,1.15,WUHU216DAVISWMX,2013-01-13 04:15:00,
2013-01-12 23:20:00,45.9,44.2,28.11,East,94,4.0,6.0,94,0.00,,,1.15,WUHU216DAVISWMX,2013-01-13 04:20:00,
2013-01-12 23:25:00,45.9,44.2,28.11,East,97,0.0,6.0,94,0.00,,,1.15,WUHU216DAVISWMX,2013-01-13 04:25:00,
2013-01-12 23:30:00,45.9,44.2,28.11,East,97,0.0,5.0,94,0.00,,,1.15,WUHU216DAVISWMX,2013-01-13 04:30:00,
2013-01-12 23:35:00,45.9,44.2,28.11,East,97,0.0,0.0,94,0.00,,,1.15,WUHU216DAVISWMX,2013-01-13 04:35:00,
2013-01-12 23:40:00,45.9,44.2,28.12,East,97,0.0,0.0,94,0.00,,,1.15,WUHU216DAVISWMX,2013-01-13 04:40:00,
2013-01-12 23:45:00,45.9,44.2,28.11,East,97,0.0,0.0,94,0.00,,,1.15,WUHU216DAVISWMX,2013-01-13 04:45:00,
2013-01-12 23:49:00,45.9,44.2,28.11,East,97,0.0,0.0,94,0.00,,,1.15,WUHU216DAVISWMX,2013-01-13 04:49:00,
2013-01-12 23:50:00,46.0,44.3,28.11,East,97,0.0,0.0,94,0.00,,,1.15,WUHU216DAVISWMX,2013-01-13 04:50:00,
2013-01-12 23:55:00,45.9,44.2,28.11,East,97,0.0,0.0,94,0.00,,,1.15,WUHU216DAVISWMX,2013-01-13 04:55:00,